createdAt,value
2022-11-15T00:12:44.768Z,7.30
2022-11-15T00:20:45.104Z,7.57
2022-11-15T00:39:34.854Z,7.32
2022-11-15T00:44:03.132Z,7.32
2022-11-15T00:46:55.890Z,7.32
2022-11-15T00:51:22.172Z,7.39
2022-11-15T00:55:52.134Z,7.40
2022-11-15T00:59:56.234Z,7.45
2022-11-15T01:03:30.312Z,7.44
2022-11-15T01:10:43.381Z,7.49
2022-11-15T01:13:57.870Z,7.53
2022-11-15T01:22:09.285Z,7.53
2022-11-15T01:26:37.096Z,7.56
2022-11-15T02:32:26.123Z,7.34
2022-11-15T02:36:54.893Z,7.31
2022-11-15T03:04:40.556Z,7.24
2022-11-15T03:07:31.927Z,7.24
2022-11-15T03:10:23.568Z,7.28
2022-11-15T03:14:02.937Z,7.31
2022-11-15T03:17:18.611Z,7.31
2022-11-15T03:20:10.399Z,7.21
2022-11-15T03:26:41.304Z,7.22
2022-11-15T03:30:19.795Z,7.14
2022-11-15T03:33:07.617Z,7.22
2022-11-15T03:41:44.843Z,7.45
2022-11-15T03:46:16.488Z,7.40
2022-11-15T03:49:55.483Z,7.39
2022-11-15T03:54:25.345Z,7.24
2022-11-15T04:02:06.239Z,7.21
2022-11-15T04:05:44.742Z,7.20
2022-11-15T04:08:32.440Z,7.20
2022-11-15T04:11:19.642Z,7.20
2022-11-15T04:19:50.533Z,7.04
2022-11-15T04:28:22.763Z,7.06
2022-11-15T04:32:29.754Z,7.07
2022-11-15T04:35:18.445Z,7.03
2022-11-15T04:39:47.524Z,7.07
2022-11-15T04:44:17.395Z,6.96
2022-11-15T04:47:04.715Z,6.90
2022-11-15T04:51:10.893Z,6.90
2022-11-15T04:54:26.013Z,6.85
2022-11-15T04:58:30.698Z,6.92
2022-11-15T05:16:43.516Z,7.08
2022-11-15T05:21:11.368Z,7.14
2022-11-15T05:24:25.878Z,7.13
2022-11-15T05:28:54.341Z,7.10
2022-11-15T05:41:53.712Z,7.14
2022-11-15T05:46:23.359Z,7.00
2022-11-15T05:53:42.940Z,7.03
2022-11-15T05:56:57.063Z,7.04
2022-11-15T06:00:37.844Z,6.94
2022-11-15T06:03:24.743Z,6.87
2022-11-15T06:06:16.249Z,6.86
2022-11-15T06:09:29.538Z,6.87
2022-11-15T06:14:01.569Z,6.92
2022-11-15T06:16:48.427Z,6.90
2022-11-15T06:19:35.533Z,6.94
2022-11-15T06:22:22.190Z,6.83
2022-11-15T06:25:35.673Z,6.87
2022-11-15T06:30:03.445Z,6.85
2022-11-15T06:38:15.721Z,6.78
2022-11-15T06:41:56.259Z,6.85
2022-11-15T06:44:43.330Z,6.90
2022-11-15T06:47:30.191Z,6.95
2022-11-15T07:01:20.503Z,7.04
2022-11-15T07:04:08.858Z,7.06
2022-11-15T07:06:56.480Z,7.00
2022-11-15T07:10:11.180Z,7.13
2022-11-15T07:18:19.171Z,7.44
2022-11-15T07:21:09.818Z,7.46
2022-11-15T07:25:14.837Z,7.44
2022-11-15T07:28:03.956Z,7.42
2022-11-15T07:30:51.037Z,7.46
2022-11-15T07:34:15.284Z,7.24
2022-11-15T07:50:26.307Z,8.09
2022-11-15T07:53:14.608Z,7.96
2022-11-15T07:56:02.204Z,7.87
2022-11-15T07:58:50.014Z,7.92
2022-11-15T08:01:37.646Z,7.83
2022-11-15T08:04:27.281Z,7.98
2022-11-15T08:07:17.289Z,8.36
2022-11-15T08:10:08.554Z,8.02
2022-11-15T08:36:39.602Z,8.37
2022-11-15T08:39:31.499Z,8.36
2022-11-15T08:42:20.139Z,8.09
2022-11-15T08:45:08.802Z,8.31
2022-11-15T08:47:55.985Z,8.30
2022-11-15T08:50:44.807Z,8.18
2022-11-15T08:53:32.844Z,8.16
2022-11-15T08:56:20.196Z,8.32
2022-11-15T08:59:07.364Z,8.27
2022-11-15T09:01:54.218Z,8.37
2022-11-15T09:04:42.166Z,8.40
2022-11-15T09:07:31.012Z,8.24
2022-11-15T09:10:19.898Z,8.32
2022-11-15T09:13:06.497Z,8.33
2022-11-15T09:15:53.288Z,8.77
2022-11-15T09:18:40.085Z,8.26
2022-11-15T09:21:27.039Z,7.98
2022-11-15T09:24:13.752Z,8.00
2022-11-15T09:27:01.973Z,8.15
2022-11-15T09:29:48.787Z,8.18
2022-11-15T09:32:39.224Z,8.31
2022-11-15T09:35:26.732Z,8.29
2022-11-15T09:38:13.244Z,8.44
2022-11-15T09:41:25.388Z,8.58
2022-11-15T09:44:27.771Z,8.64
2022-11-15T09:47:43.631Z,8.61
2022-11-15T09:50:43.673Z,8.61
2022-11-15T09:53:17.156Z,8.57
2022-11-15T09:55:50.371Z,8.67
2022-11-15T09:58:26.464Z,8.88
2022-11-15T10:00:56.305Z,9.01
2022-11-15T10:03:28.851Z,8.80
2022-11-15T10:05:59.825Z,8.81
2022-11-15T10:08:36.161Z,8.64
2022-11-15T10:13:58.461Z,8.96
2022-11-15T10:16:54.265Z,9.11
2022-11-15T10:19:28.478Z,9.40
2022-11-15T10:22:02.960Z,9.71
2022-11-15T10:24:36.976Z,9.91
2022-11-15T10:27:11.195Z,9.96
2022-11-15T10:29:45.113Z,9.95
2022-11-15T10:32:16.248Z,9.80
2022-11-15T10:34:45.484Z,9.50
2022-11-15T10:37:15.865Z,9.68
2022-11-15T10:39:47.042Z,9.69
2022-11-15T10:42:22.294Z,9.69
2022-11-15T10:44:52.529Z,9.77
2022-11-15T10:47:28.406Z,9.71
2022-11-15T10:50:09.607Z,9.81
2022-11-15T10:52:38.994Z,9.93
2022-11-15T10:55:25.012Z,10.06
2022-11-15T10:57:55.184Z,9.96
2022-11-15T11:00:32.953Z,9.86
2022-11-15T11:03:03.848Z,9.98
2022-11-15T11:05:39.875Z,9.95
2022-11-15T11:08:23.942Z,10.04
2022-11-15T11:11:01.224Z,10.07
2022-11-15T11:13:32.092Z,10.05
2022-11-15T11:16:26.540Z,10.13
2022-11-15T11:19:05.973Z,10.02
2022-11-15T11:21:46.377Z,10.20
2022-11-15T11:24:21.549Z,10.06
2022-11-15T11:27:01.805Z,10.01
2022-11-15T11:29:40.863Z,10.05
2022-11-15T11:32:30.761Z,10.18
2022-11-15T11:35:04.547Z,10.16
2022-11-15T11:37:37.926Z,10.07
2022-11-15T11:40:19.020Z,9.95
2022-11-15T11:42:59.281Z,9.88
2022-11-15T11:45:50.829Z,9.67
2022-11-15T11:48:28.582Z,9.69
2022-11-15T11:51:03.501Z,9.93
2022-11-15T11:53:37.155Z,9.86
2022-11-15T11:56:09.999Z,9.96
2022-11-15T11:58:41.218Z,10.16
2022-11-15T12:01:14.796Z,10.13
2022-11-15T12:03:46.750Z,10.12
2022-11-15T12:06:23.905Z,10.07
2022-11-15T12:08:59.050Z,9.85
2022-11-15T12:11:32.059Z,9.98
2022-11-15T12:14:04.466Z,10.00
2022-11-15T12:16:34.613Z,9.94
2022-11-15T12:19:05.839Z,9.92
2022-11-15T12:21:41.598Z,9.69
2022-11-15T12:24:17.067Z,9.59
2022-11-15T12:26:50.141Z,9.67
2022-11-15T12:29:22.690Z,9.55
2022-11-15T12:31:53.553Z,9.57
2022-11-15T12:34:40.632Z,9.47
2022-11-15T12:37:56.264Z,9.43
2022-11-15T12:40:37.434Z,9.36
2022-11-15T12:43:28.248Z,9.45
2022-11-15T12:45:56.521Z,9.25
2022-11-15T12:48:58.893Z,8.94
2022-11-15T12:52:09.515Z,9.10
2022-11-15T12:55:04.214Z,8.98
2022-11-15T12:57:52.412Z,9.13
2022-11-15T13:00:44.803Z,9.08
2022-11-15T13:03:21.735Z,9.22
2022-11-15T13:06:11.366Z,9.16
2022-11-15T13:08:51.947Z,9.15
2022-11-15T13:11:52.839Z,8.97
2022-11-15T13:14:46.173Z,9.10
2022-11-15T13:17:35.640Z,9.00
2022-11-15T13:20:28.698Z,8.89
2022-11-15T13:23:04.853Z,8.95
2022-11-15T13:26:03.971Z,8.97
2022-11-15T13:28:36.332Z,8.95
2022-11-15T13:31:21.694Z,8.82
2022-11-15T13:33:50.387Z,8.88
2022-11-15T13:36:22.510Z,8.71
2022-11-15T13:38:58.922Z,8.80
2022-11-15T13:41:29.982Z,8.79
2022-11-15T13:43:59.333Z,8.71
2022-11-15T13:46:29.748Z,8.58
2022-11-15T13:49:00.507Z,8.67
2022-11-15T13:51:41.573Z,8.68
2022-11-15T13:54:17.014Z,8.68
2022-11-15T13:56:48.095Z,8.59
2022-11-15T13:59:20.786Z,8.62
2022-11-15T14:01:52.135Z,8.59
2022-11-15T14:04:22.833Z,8.63
2022-11-15T14:06:52.856Z,8.51
2022-11-15T14:09:34.358Z,8.49
2022-11-15T14:12:04.719Z,8.47
2022-11-15T14:14:33.382Z,8.55
2022-11-15T14:17:03.384Z,8.42
2022-11-15T14:19:40.390Z,8.33
2022-11-15T14:22:14.388Z,8.44
2022-11-15T14:24:44.336Z,8.60
2022-11-15T14:27:23.694Z,8.67
2022-11-15T14:29:52.396Z,8.63
2022-11-15T14:32:24.213Z,8.58
2022-11-15T14:34:57.424Z,8.44
2022-11-15T14:37:28.347Z,8.41
2022-11-15T14:39:57.273Z,8.37
2022-11-15T14:42:26.330Z,8.37
2022-11-15T14:44:55.055Z,8.35
2022-11-15T14:47:24.808Z,8.43
2022-11-15T14:49:53.182Z,8.39
2022-11-15T14:52:32.583Z,8.33
2022-11-15T14:55:02.453Z,8.38
2022-11-15T14:57:31.238Z,8.48
2022-11-15T14:59:59.701Z,8.45
2022-11-15T15:02:42.990Z,8.39
2022-11-15T15:05:19.471Z,8.19
2022-11-15T15:07:49.888Z,8.12
2022-11-15T15:13:07.947Z,8.11
2022-11-15T15:15:37.947Z,8.25
2022-11-15T15:18:09.708Z,8.12
2022-11-15T15:20:39.120Z,8.16
2022-11-15T15:23:07.670Z,8.15
2022-11-15T15:25:37.424Z,8.18
2022-11-15T15:28:05.731Z,8.18
2022-11-15T15:30:34.213Z,8.19
2022-11-15T15:33:02.683Z,8.32
2022-11-15T15:35:35.668Z,8.39
2022-11-15T15:38:04.584Z,8.25
2022-11-15T15:40:34.171Z,8.33
2022-11-15T15:43:02.707Z,8.34
2022-11-15T15:45:31.155Z,8.27
2022-11-15T15:47:59.415Z,8.24
2022-11-15T15:50:29.355Z,8.31
2022-11-15T15:53:02.852Z,8.38
2022-11-15T15:55:31.437Z,8.31
2022-11-15T15:57:59.781Z,8.15
2022-11-15T16:00:28.461Z,8.32
2022-11-15T16:02:56.975Z,8.36
2022-11-15T16:05:25.352Z,8.30
2022-11-15T16:07:53.912Z,8.31
2022-11-15T16:10:26.179Z,8.26
2022-11-15T16:12:54.954Z,8.24
2022-11-15T16:15:24.908Z,8.25
2022-11-15T16:17:54.843Z,8.30
2022-11-15T16:20:34.104Z,8.36
2022-11-15T16:23:07.510Z,8.28
2022-11-15T16:25:43.562Z,8.31
2022-11-15T16:28:18.759Z,8.23
2022-11-15T16:30:51.131Z,8.41
2022-11-15T16:33:23.884Z,8.36
2022-11-15T16:35:52.706Z,8.34
2022-11-15T16:38:21.072Z,8.29
2022-11-15T16:40:51.217Z,8.36
2022-11-15T16:43:19.739Z,8.36
2022-11-15T16:45:48.852Z,8.34
2022-11-15T16:48:24.479Z,8.39
2022-11-15T16:50:53.414Z,8.40
2022-11-15T16:53:23.006Z,8.32
2022-11-15T16:55:53.737Z,8.35
2022-11-15T16:58:22.950Z,8.34
2022-11-15T17:00:54.365Z,8.22
2022-11-15T17:03:26.272Z,8.27
2022-11-15T17:05:54.666Z,8.35
2022-11-15T17:08:24.322Z,8.30
2022-11-15T17:10:54.333Z,8.31
2022-11-15T17:13:23.010Z,8.27
2022-11-15T17:15:52.400Z,8.29
2022-11-15T17:18:21.782Z,8.30
2022-11-15T17:20:51.058Z,8.28
2022-11-15T17:23:20.117Z,8.29
2022-11-15T17:25:49.006Z,8.29
2022-11-15T17:28:21.970Z,8.31
2022-11-15T17:30:51.998Z,8.35
2022-11-15T17:33:20.430Z,8.38
2022-11-15T17:35:56.946Z,8.34
2022-11-15T17:38:26.491Z,8.30
2022-11-15T17:41:06.561Z,8.34
2022-11-15T17:43:37.502Z,8.48
2022-11-15T17:46:07.902Z,8.26
2022-11-15T17:48:39.410Z,8.18
2022-11-15T17:51:09.927Z,8.21
2022-11-15T17:53:40.222Z,8.23
2022-11-15T17:56:10.980Z,8.19
2022-11-15T17:58:42.712Z,8.24
2022-11-15T18:01:16.481Z,8.20
2022-11-15T18:03:45.313Z,8.11
2022-11-15T18:06:17.791Z,8.14
2022-11-15T18:08:48.102Z,8.19
2022-11-15T18:11:20.266Z,8.18
2022-11-15T18:13:56.353Z,8.23
2022-11-15T18:16:27.326Z,8.16
2022-11-15T18:18:57.677Z,8.13
2022-11-15T18:21:28.594Z,8.12
2022-11-15T18:23:58.993Z,8.10
2022-11-15T18:26:31.757Z,8.00
2022-11-15T18:29:06.713Z,8.12
2022-11-15T18:31:37.652Z,8.12
2022-11-15T18:34:07.510Z,8.19
2022-11-15T18:36:39.368Z,8.20
2022-11-15T18:39:08.448Z,8.22
2022-11-15T18:41:40.605Z,8.14
2022-11-15T18:44:13.186Z,8.22
2022-11-15T18:46:43.521Z,8.19
2022-11-15T18:49:15.322Z,8.23
2022-11-15T18:51:46.869Z,8.23
2022-11-15T18:54:19.405Z,8.27
2022-11-15T18:56:49.465Z,8.30
2022-11-15T18:59:23.187Z,8.41
2022-11-15T19:01:53.326Z,8.39
2022-11-15T19:04:26.696Z,8.31
2022-11-15T19:06:57.330Z,8.35
2022-11-15T19:09:33.932Z,8.28
2022-11-15T19:12:04.406Z,8.29
2022-11-15T19:14:40.090Z,8.25
2022-11-15T19:17:10.016Z,8.26
2022-11-15T19:19:40.978Z,8.06
2022-11-15T19:22:11.141Z,8.10
2022-11-15T19:24:40.635Z,8.04
2022-11-15T19:27:09.617Z,8.00
2022-11-15T19:29:41.240Z,8.10
2022-11-15T19:32:13.619Z,8.06
2022-11-15T19:34:44.673Z,8.14
2022-11-15T19:37:14.961Z,8.16
2022-11-15T19:39:48.419Z,8.13
2022-11-15T19:42:18.907Z,8.07
2022-11-15T19:44:50.981Z,8.10
2022-11-15T19:47:22.200Z,8.07
2022-11-15T19:49:52.755Z,8.01
2022-11-15T19:52:24.604Z,7.99
2022-11-15T19:54:55.193Z,8.05
2022-11-15T19:57:24.995Z,8.03
2022-11-15T20:00:00.838Z,8.15
2022-11-15T20:02:36.742Z,8.11
2022-11-15T20:05:06.302Z,8.08
2022-11-15T20:07:35.134Z,8.04
2022-11-15T20:10:04.670Z,8.04
2022-11-15T20:12:34.165Z,8.04
2022-11-15T20:15:04.989Z,8.01
2022-11-15T20:17:34.338Z,7.96
2022-11-15T20:20:05.131Z,8.03
2022-11-15T20:22:34.090Z,8.04
2022-11-15T20:25:03.107Z,8.01
2022-11-15T20:27:33.734Z,7.97
2022-11-15T20:30:05.438Z,8.04
2022-11-15T20:32:35.487Z,8.05
2022-11-15T20:35:04.677Z,8.10
2022-11-15T20:37:35.390Z,8.14
2022-11-15T20:40:04.894Z,8.14
2022-11-15T20:42:33.846Z,8.10
2022-11-15T20:45:06.285Z,8.12
2022-11-15T20:47:35.666Z,8.07
2022-11-15T20:50:27.718Z,8.04
2022-11-15T20:52:54.345Z,8.05
2022-11-15T20:55:23.262Z,8.05
2022-11-15T20:57:52.401Z,8.02
2022-11-15T21:00:26.270Z,8.05
2022-11-15T21:02:55.536Z,8.11
2022-11-15T21:05:25.324Z,8.08
2022-11-15T21:07:54.894Z,8.14
2022-11-15T21:10:41.538Z,8.11
2022-11-15T21:13:10.432Z,8.06
2022-11-15T21:15:40.357Z,8.00
2022-11-15T21:18:09.315Z,8.04
2022-11-15T21:20:38.025Z,8.01
2022-11-15T21:23:06.414Z,8.00
2022-11-15T21:25:35.677Z,8.02
2022-11-15T21:28:04.221Z,8.02
2022-11-15T21:30:32.652Z,8.00
2022-11-15T21:33:02.672Z,8.06
2022-11-15T21:35:31.208Z,8.11
2022-11-15T21:38:00.367Z,8.10
2022-11-15T21:40:28.711Z,8.11
2022-11-15T21:42:57.178Z,8.14
2022-11-15T21:45:25.801Z,8.06
2022-11-15T21:47:54.239Z,8.11
2022-11-15T21:50:23.994Z,8.10
2022-11-15T21:52:52.378Z,8.09
2022-11-15T21:55:20.743Z,8.15
2022-11-15T21:57:49.246Z,8.09
2022-11-15T22:00:37.067Z,8.05
2022-11-15T22:03:05.379Z,7.93
2022-11-15T22:05:35.266Z,7.87
2022-11-15T22:08:05.271Z,7.87
2022-11-15T22:10:33.819Z,7.86
2022-11-15T22:13:03.263Z,7.86
2022-11-15T22:15:34.704Z,7.80
2022-11-15T22:18:04.466Z,7.91
2022-11-15T22:20:48.258Z,7.86
2022-11-15T22:23:18.214Z,7.81
2022-11-15T22:25:46.702Z,7.80
2022-11-15T22:28:15.187Z,7.81
2022-11-15T22:30:47.914Z,7.78
2022-11-15T22:33:22.685Z,7.78
2022-11-15T22:35:58.420Z,7.87
2022-11-15T22:38:30.824Z,7.93
2022-11-15T22:41:01.030Z,7.95
2022-11-15T22:43:30.011Z,7.91
2022-11-15T22:46:00.303Z,7.96
2022-11-15T22:48:30.876Z,7.95
2022-11-15T22:51:00.190Z,8.05
2022-11-15T22:53:30.760Z,8.09
2022-11-15T22:56:00.344Z,8.01
2022-11-15T22:58:30.301Z,8.02
2022-11-15T23:01:00.914Z,8.01
2022-11-15T23:03:30.535Z,7.94
2022-11-15T23:06:03.302Z,7.91
2022-11-15T23:08:33.375Z,7.97
2022-11-15T23:11:20.062Z,7.99
2022-11-15T23:13:51.167Z,7.94
2022-11-15T23:16:34.337Z,7.86
2022-11-15T23:19:05.392Z,7.79
2022-11-15T23:21:52.148Z,7.80
2022-11-15T23:24:24.317Z,7.73
2022-11-15T23:26:54.107Z,7.74
2022-11-15T23:29:25.105Z,7.72
2022-11-15T23:32:11.192Z,7.79
2022-11-15T23:34:41.818Z,7.75
2022-11-15T23:37:14.658Z,7.74
2022-11-15T23:39:44.426Z,7.71
2022-11-15T23:42:19.980Z,7.76
2022-11-15T23:44:50.147Z,7.79
2022-11-15T23:47:18.538Z,7.75
2022-11-15T23:49:47.023Z,7.76
2022-11-15T23:52:16.649Z,7.82
2022-11-15T23:54:46.343Z,7.91
2022-11-15T23:57:14.606Z,7.83
2022-11-15T23:59:44.555Z,7.78
